createdAt,value
2018-11-01T00:01:34.085Z,65.78
2018-11-01T00:04:05.596Z,65.88
2018-11-01T00:06:36.748Z,65.97
2018-11-01T00:09:10.489Z,65.94
2018-11-01T00:11:42.262Z,65.90
2018-11-01T00:14:13.956Z,66.00
2018-11-01T00:16:45.026Z,66.21
2018-11-01T00:19:16.059Z,66.34
2018-11-01T00:21:47.140Z,66.45
2018-11-01T00:24:18.196Z,66.67
2018-11-01T00:26:49.341Z,66.93
2018-11-01T00:29:20.413Z,66.99
2018-11-01T00:31:51.469Z,67.12
2018-11-01T00:34:24.676Z,67.07
2018-11-01T00:36:55.779Z,67.22
2018-11-01T00:39:27.117Z,67.33
2018-11-01T00:41:58.911Z,67.53
2018-11-01T00:44:30.391Z,67.66
2018-11-01T00:47:01.441Z,67.82
2018-11-01T00:49:32.590Z,67.83
2018-11-01T00:52:03.697Z,68.03
2018-11-01T00:54:34.751Z,68.09
2018-11-01T00:57:05.834Z,68.22
2018-11-01T00:59:36.956Z,68.38
2018-11-01T01:02:08.709Z,68.50
2018-11-01T01:04:39.814Z,68.58
2018-11-01T01:07:10.902Z,68.86
2018-11-01T01:09:42.157Z,69.20
2018-11-01T01:12:13.488Z,69.44
2018-11-01T01:14:45.191Z,69.69
2018-11-01T01:17:16.266Z,69.85
2018-11-01T01:19:47.715Z,70.09
2018-11-01T01:22:20.659Z,70.33
2018-11-01T01:24:51.871Z,70.62
2018-11-01T01:27:22.905Z,70.95
2018-11-01T01:29:53.959Z,71.15
2018-11-01T01:32:25.049Z,71.24
2018-11-01T01:34:56.487Z,71.33
2018-11-01T01:37:28.187Z,71.30
2018-11-01T01:39:59.579Z,71.21
2018-11-01T01:42:49.988Z,71.27
2018-11-01T01:45:21.367Z,71.25
2018-11-01T01:47:52.832Z,71.02
2018-11-01T01:50:23.922Z,70.93
2018-11-01T01:52:55.299Z,71.09
2018-11-01T01:55:26.431Z,71.57
2018-11-01T01:57:57.810Z,71.82
2018-11-01T02:00:29.159Z,71.89
2018-11-01T02:03:00.642Z,71.78
2018-11-01T02:05:31.658Z,71.58
2018-11-01T02:08:02.758Z,71.59
2018-11-01T02:10:34.163Z,71.51
2018-11-01T02:13:06.023Z,71.45
2018-11-01T02:15:37.076Z,71.49
2018-11-01T02:18:08.510Z,71.43
2018-11-01T02:20:39.832Z,71.47
2018-11-01T02:23:10.914Z,71.31
2018-11-01T02:25:42.002Z,71.19
2018-11-01T02:28:17.125Z,71.18
2018-11-01T02:30:48.247Z,71.56
2018-11-01T02:33:19.310Z,71.88
2018-11-01T02:35:50.378Z,72.08
2018-11-01T02:38:21.491Z,72.12
2018-11-01T02:40:52.533Z,72.24
2018-11-01T02:43:24.307Z,72.37
2018-11-01T02:45:58.968Z,72.41
2018-11-01T02:48:30.038Z,72.38
2018-11-01T02:51:01.297Z,72.54
2018-11-01T02:53:32.235Z,72.61
2018-11-01T02:56:03.320Z,72.75
2018-11-01T02:58:34.458Z,72.74
2018-11-01T03:01:05.629Z,72.83
2018-11-01T03:03:36.842Z,72.70
2018-11-01T03:06:08.090Z,72.60
2018-11-01T03:08:39.504Z,72.59
2018-11-01T03:11:10.726Z,72.68
2018-11-01T03:13:42.155Z,72.66
2018-11-01T03:16:13.220Z,72.54
2018-11-01T03:18:44.614Z,72.40
2018-11-01T03:21:16.022Z,72.39
2018-11-01T03:23:47.725Z,72.51
2018-11-01T03:26:19.208Z,72.78
2018-11-01T03:28:51.016Z,72.80
2018-11-01T03:31:22.085Z,72.80
2018-11-01T03:33:53.162Z,72.92
2018-11-01T03:36:24.659Z,72.97
2018-11-01T03:38:55.984Z,72.96
2018-11-01T03:41:27.268Z,73.12
2018-11-01T03:43:58.373Z,73.37
2018-11-01T03:46:29.454Z,73.55
2018-11-01T03:49:00.517Z,73.76
2018-11-01T03:51:31.766Z,74.02
2018-11-01T03:54:02.923Z,74.40
2018-11-01T03:56:34.378Z,74.39
2018-11-01T03:59:06.024Z,74.63
2018-11-01T04:01:37.867Z,74.75
2018-11-01T04:04:09.314Z,74.70
2018-11-01T04:06:42.720Z,74.61
2018-11-01T04:09:14.650Z,74.47
2018-11-01T04:11:45.716Z,74.27
2018-11-01T04:14:20.897Z,74.01
2018-11-01T04:16:52.046Z,73.77
2018-11-01T04:19:23.013Z,73.74
2018-11-01T04:22:06.672Z,73.94
2018-11-01T04:24:38.444Z,74.09
2018-11-01T04:27:09.539Z,74.33
2018-11-01T04:29:40.578Z,74.45
2018-11-01T04:32:11.615Z,74.60
2018-11-01T04:34:43.019Z,74.78
2018-11-01T04:37:14.455Z,74.44
2018-11-01T04:39:45.519Z,74.60
2018-11-01T04:42:17.777Z,75.06
2018-11-01T04:44:48.850Z,75.32
2018-11-01T04:47:20.037Z,75.28
2018-11-01T04:49:51.092Z,75.30
2018-11-01T04:52:22.267Z,75.18
2018-11-01T04:54:53.219Z,75.09
2018-11-01T04:57:25.016Z,74.97
2018-11-01T04:59:56.122Z,74.98
2018-11-01T05:02:27.134Z,75.00
2018-11-01T05:04:58.207Z,75.10
2018-11-01T05:07:29.277Z,75.02
2018-11-01T05:10:00.772Z,74.93
2018-11-01T05:12:32.306Z,74.87
2018-11-01T05:15:03.432Z,74.81
2018-11-01T05:17:34.450Z,74.66
2018-11-01T05:20:07.204Z,74.47
2018-11-01T05:22:38.292Z,74.25
2018-11-01T05:25:10.343Z,74.12
2018-11-01T05:27:41.830Z,74.02
2018-11-01T05:30:14.507Z,74.13
2018-11-01T05:32:45.868Z,74.28
2018-11-01T05:35:17.218Z,74.33
2018-11-01T05:37:48.664Z,74.33
2018-11-01T05:40:19.611Z,74.86
2018-11-01T05:42:50.703Z,75.32
2018-11-01T05:45:21.823Z,75.53
2018-11-01T05:47:52.895Z,75.50
2018-11-01T05:50:23.938Z,75.44
2018-11-01T05:52:54.963Z,75.41
2018-11-01T05:55:26.053Z,75.34
2018-11-01T05:57:57.448Z,75.38
2018-11-01T06:00:28.480Z,75.33
2018-11-01T06:02:59.493Z,75.36
2018-11-01T06:05:30.815Z,75.31
2018-11-01T06:08:20.472Z,75.24
2018-11-01T06:10:51.587Z,75.16
2018-11-01T06:13:23.195Z,75.46
2018-11-01T06:15:54.555Z,75.58
2018-11-01T06:18:25.592Z,75.51
2018-11-01T06:20:56.641Z,75.49
2018-11-01T06:23:27.691Z,75.63
2018-11-01T06:25:58.828Z,75.59
2018-11-01T06:28:30.064Z,75.65
2018-11-01T06:31:01.154Z,75.70
2018-11-01T06:33:32.140Z,75.63
2018-11-01T06:36:12.662Z,75.49
2018-11-01T06:38:45.068Z,75.47
2018-11-01T06:41:16.242Z,75.26
2018-11-01T06:43:47.322Z,75.26
2018-11-01T06:46:18.412Z,75.42
2018-11-01T06:48:50.029Z,75.39
2018-11-01T06:51:21.047Z,75.44
2018-11-01T06:53:52.111Z,75.46
2018-11-01T06:56:23.993Z,76.05
2018-11-01T06:58:55.529Z,76.90
2018-11-01T07:01:26.641Z,77.59
2018-11-01T07:03:57.906Z,77.43
2018-11-01T07:06:29.212Z,76.99
2018-11-01T07:09:00.697Z,76.50
2018-11-01T07:11:32.070Z,76.16
2018-11-01T07:14:03.675Z,76.11
2018-11-01T07:16:34.672Z,76.04
2018-11-01T07:19:06.038Z,76.27
2018-11-01T07:21:37.178Z,76.25
2018-11-01T07:24:13.067Z,76.05
2018-11-01T07:26:46.168Z,75.88
2018-11-01T07:29:17.441Z,76.14
2018-11-01T07:31:48.576Z,76.07
2018-11-01T07:34:19.673Z,75.84
2018-11-01T07:36:50.876Z,76.01
2018-11-01T07:39:21.979Z,76.79
2018-11-01T07:41:53.122Z,76.65
2018-11-01T07:44:24.505Z,76.54
2018-11-01T07:46:56.063Z,76.28
2018-11-01T07:49:51.233Z,76.12
2018-11-01T07:52:22.965Z,76.02
2018-11-01T07:54:54.571Z,75.92
2018-11-01T07:57:25.634Z,75.69
2018-11-01T07:59:56.674Z,75.60
2018-11-01T08:02:28.086Z,75.48
2018-11-01T08:04:59.473Z,75.23
2018-11-01T08:07:30.539Z,74.97
2018-11-01T08:10:01.885Z,74.87
2018-11-01T08:12:32.958Z,75.19
2018-11-01T08:15:07.097Z,75.68
2018-11-01T08:17:38.164Z,75.54
2018-11-01T08:20:12.199Z,75.59
2018-11-01T08:22:43.562Z,75.32
2018-11-01T08:25:15.062Z,74.98
2018-11-01T08:27:50.224Z,74.73
2018-11-01T08:30:21.837Z,74.50
2018-11-01T08:32:52.938Z,74.49
2018-11-01T08:35:25.152Z,74.74
2018-11-01T08:37:56.799Z,74.97
2018-11-01T08:40:34.213Z,75.03
2018-11-01T08:43:06.440Z,75.12
2018-11-01T08:45:37.485Z,75.10
2018-11-01T08:48:11.147Z,75.03
2018-11-01T08:50:44.101Z,75.02
2018-11-01T08:53:15.951Z,74.99
2018-11-01T08:55:47.241Z,74.84
2018-11-01T08:58:18.586Z,74.62
2018-11-01T09:00:50.104Z,74.27
2018-11-01T09:03:22.009Z,74.35
2018-11-01T09:05:53.141Z,74.46
2018-11-01T09:08:24.128Z,74.42
2018-11-01T09:10:55.441Z,74.46
2018-11-01T09:13:33.402Z,74.37
2018-11-01T09:16:04.532Z,74.56
2018-11-01T09:18:35.543Z,74.41
2018-11-01T09:21:07.630Z,74.44
2018-11-01T09:23:38.743Z,74.51
2018-11-01T09:26:11.557Z,74.52
2018-11-01T09:28:42.886Z,74.51
2018-11-01T09:31:18.435Z,74.22
2018-11-01T09:33:49.971Z,74.08
2018-11-01T09:36:21.315Z,73.86
2018-11-01T09:38:54.815Z,73.79
2018-11-01T09:41:26.210Z,73.73
2018-11-01T09:43:57.299Z,73.55
2018-11-01T09:46:28.633Z,73.46
2018-11-01T09:49:02.492Z,73.37
2018-11-01T09:51:36.476Z,73.33
2018-11-01T09:54:08.952Z,73.33
2018-11-01T09:56:40.319Z,73.61
2018-11-01T09:59:13.559Z,73.83
2018-11-01T10:01:42.862Z,73.72
2018-11-01T10:04:14.158Z,73.68
2018-11-01T10:06:45.600Z,73.63
2018-11-01T10:09:16.699Z,73.61
2018-11-01T10:11:47.799Z,73.58
2018-11-01T10:14:19.303Z,73.57
2018-11-01T10:16:51.689Z,73.51
2018-11-01T10:19:22.930Z,73.33
2018-11-01T10:21:54.082Z,73.57
2018-11-01T10:24:26.342Z,73.74
2018-11-01T10:26:58.450Z,73.52
2018-11-01T10:29:29.533Z,73.37
2018-11-01T10:32:00.905Z,73.14
2018-11-01T10:34:32.224Z,72.85
2018-11-01T10:37:03.673Z,72.63
2018-11-01T10:39:35.499Z,72.36
2018-11-01T10:42:08.994Z,72.50
2018-11-01T10:44:40.180Z,72.40
2018-11-01T10:47:11.237Z,72.27
2018-11-01T10:49:43.085Z,72.25
2018-11-01T10:52:23.351Z,72.25
2018-11-01T10:54:54.778Z,72.21
2018-11-01T10:57:26.788Z,72.18
2018-11-01T10:59:59.311Z,72.22
2018-11-01T11:02:30.327Z,72.20
2018-11-01T11:05:01.390Z,72.20
2018-11-01T11:07:32.769Z,72.10
2018-11-01T11:10:05.338Z,72.25
2018-11-01T11:12:36.798Z,72.08
2018-11-01T11:15:08.892Z,71.88
2018-11-01T11:17:40.433Z,71.92
2018-11-01T11:20:15.281Z,71.93
2018-11-01T11:22:46.195Z,71.81
2018-11-01T11:25:19.119Z,71.72
2018-11-01T11:27:50.240Z,71.73
2018-11-01T11:30:28.268Z,71.87
2018-11-01T11:32:59.113Z,71.83
2018-11-01T11:35:30.255Z,71.80
2018-11-01T11:38:03.662Z,71.74
2018-11-01T11:40:34.905Z,71.68
2018-11-01T11:43:15.158Z,71.59
2018-11-01T11:45:57.738Z,71.48
2018-11-01T11:48:31.517Z,71.35
2018-11-01T11:51:03.332Z,71.39
2018-11-01T11:53:35.851Z,71.46
2018-11-01T11:56:07.707Z,71.31
2018-11-01T11:58:40.036Z,71.37
2018-11-01T12:01:25.879Z,71.67
2018-11-01T12:03:57.249Z,71.67
2018-11-01T12:06:28.687Z,71.65
2018-11-01T12:08:59.731Z,71.59
2018-11-01T12:11:30.941Z,71.69
2018-11-01T12:14:03.193Z,72.88
2018-11-01T12:16:36.108Z,72.43
2018-11-01T12:19:07.698Z,72.60
2018-11-01T12:21:38.919Z,72.42
2018-11-01T12:24:10.102Z,72.35
2018-11-01T12:26:41.886Z,72.66
2018-11-01T12:29:14.990Z,72.99
2018-11-01T12:31:46.080Z,73.06
2018-11-01T12:34:23.547Z,72.84
2018-11-01T12:36:54.845Z,72.94
2018-11-01T12:39:28.935Z,73.67
2018-11-01T12:42:01.116Z,73.41
2018-11-01T12:44:33.404Z,73.19
2018-11-01T12:47:07.806Z,73.07
2018-11-01T12:49:40.839Z,73.12
2018-11-01T12:52:11.968Z,73.05
2018-11-01T12:54:48.790Z,73.30
2018-11-01T12:57:24.684Z,73.48
2018-11-01T12:59:56.719Z,73.49
2018-11-01T13:02:28.103Z,73.95
2018-11-01T13:05:07.597Z,73.82
2018-11-01T13:07:38.674Z,73.77
2018-11-01T13:10:10.002Z,73.72
2018-11-01T13:12:42.752Z,73.72
2018-11-01T13:15:13.956Z,73.97
2018-11-01T13:17:45.587Z,74.08
2018-11-01T13:20:22.391Z,74.07
2018-11-01T13:22:53.684Z,74.09
2018-11-01T13:25:25.082Z,73.94
2018-11-01T13:27:56.247Z,73.99
2018-11-01T13:30:29.255Z,73.89
2018-11-01T13:33:04.447Z,74.45
2018-11-01T13:35:35.656Z,74.26
2018-11-01T13:38:11.776Z,74.32
2018-11-01T13:40:44.253Z,74.33
2018-11-01T13:43:15.334Z,74.37
2018-11-01T13:45:47.596Z,74.51
2018-11-01T13:48:20.473Z,74.64
2018-11-01T13:50:51.692Z,75.70
2018-11-01T13:53:23.185Z,75.96
2018-11-01T13:55:54.251Z,75.92
2018-11-01T13:58:25.934Z,75.83
2018-11-01T14:01:03.225Z,76.25
2018-11-01T14:03:34.241Z,76.25
2018-11-01T14:06:07.102Z,76.23
2018-11-01T14:08:49.619Z,76.39
2018-11-01T14:11:21.233Z,76.38
2018-11-01T14:13:57.161Z,76.49
2018-11-01T14:16:31.919Z,76.89
2018-11-01T14:19:02.963Z,77.58
2018-11-01T14:21:34.304Z,77.71
2018-11-01T14:24:05.666Z,77.63
2018-11-01T14:26:36.980Z,77.59
2018-11-01T14:29:08.697Z,77.74
2018-11-01T14:31:40.325Z,78.34
2018-11-01T14:34:11.460Z,78.57
2018-11-01T14:36:42.908Z,78.76
2018-11-01T14:39:14.008Z,78.88
2018-11-01T14:41:45.070Z,78.83
2018-11-01T14:44:16.276Z,78.82
2018-11-01T14:46:47.317Z,79.14
2018-11-01T14:49:18.382Z,79.19
2018-11-01T14:51:49.660Z,79.10
2018-11-01T14:54:21.624Z,79.10
2018-11-01T14:56:53.102Z,79.15
2018-11-01T14:59:24.447Z,79.21
2018-11-01T15:01:53.918Z,79.06
2018-11-01T15:04:25.588Z,79.02
2018-11-01T15:06:57.026Z,79.00
2018-11-01T15:09:28.511Z,78.84
2018-11-01T15:11:59.643Z,78.69
2018-11-01T15:14:30.722Z,78.62
2018-11-01T15:17:08.593Z,78.55
2018-11-01T15:19:39.621Z,78.46
2018-11-01T15:22:10.724Z,78.52
2018-11-01T15:24:41.841Z,78.45
2018-11-01T15:27:13.487Z,78.37
2018-11-01T15:29:44.631Z,78.35
2018-11-01T15:32:33.975Z,78.30
2018-11-01T15:35:04.935Z,78.30
2018-11-01T15:37:38.551Z,78.46
2018-11-01T15:40:13.794Z,78.40
2018-11-01T15:42:47.170Z,78.36
2018-11-01T15:45:20.626Z,78.20
2018-11-01T15:47:51.659Z,78.07
2018-11-01T15:50:26.833Z,78.07
2018-11-01T15:53:02.159Z,78.21
2018-11-01T15:55:35.635Z,78.33
2018-11-01T15:58:10.058Z,78.47
2018-11-01T16:00:47.212Z,78.55
2018-11-01T16:03:20.926Z,78.74
2018-11-01T16:05:52.706Z,78.80
2018-11-01T16:08:34.751Z,79.05
2018-11-01T16:11:10.554Z,79.11
2018-11-01T16:13:42.691Z,79.17
2018-11-01T16:16:13.754Z,79.11
2018-11-01T16:18:44.834Z,79.35
2018-11-01T16:21:16.247Z,79.33
2018-11-01T16:23:47.285Z,79.27
2018-11-01T16:26:18.637Z,79.26
2018-11-01T16:28:50.039Z,79.37
2018-11-01T16:31:21.138Z,79.47
2018-11-01T16:33:53.312Z,79.47
2018-11-01T16:36:24.545Z,79.56
2018-11-01T16:38:56.029Z,79.68
2018-11-01T16:41:27.570Z,79.74
2018-11-01T16:43:59.357Z,79.85
2018-11-01T16:46:30.498Z,79.96
2018-11-01T16:49:01.667Z,79.92
2018-11-01T16:51:32.725Z,80.01
2018-11-01T16:54:04.732Z,80.03
2018-11-01T16:56:38.454Z,80.14
2018-11-01T16:59:09.483Z,80.03
2018-11-01T17:01:40.518Z,79.93
2018-11-01T17:04:11.601Z,79.79
2018-11-01T17:06:43.112Z,79.80
2018-11-01T17:09:14.366Z,79.79
2018-11-01T17:11:48.900Z,79.85
2018-11-01T17:14:20.293Z,80.03
2018-11-01T17:16:51.514Z,80.03
2018-11-01T17:19:23.503Z,80.11
2018-11-01T17:22:00.470Z,80.19
2018-11-01T17:24:31.890Z,80.31
2018-11-01T17:27:05.371Z,80.56
2018-11-01T17:29:36.667Z,80.63
2018-11-01T17:32:09.795Z,80.59
2018-11-01T17:34:41.141Z,80.65
2018-11-01T17:37:12.209Z,80.57
2018-11-01T17:39:43.606Z,80.79
2018-11-01T17:42:14.649Z,80.69
2018-11-01T17:44:45.708Z,80.67
2018-11-01T17:47:17.232Z,80.72
2018-11-01T17:49:48.282Z,80.81
2018-11-01T17:52:19.387Z,80.69
2018-11-01T17:54:50.501Z,80.67
2018-11-01T17:57:21.746Z,80.68
2018-11-01T17:59:52.817Z,80.54
2018-11-01T18:02:24.281Z,80.42
2018-11-01T18:04:56.096Z,80.34
2018-11-01T18:07:27.339Z,80.28
2018-11-01T18:09:59.380Z,80.21
2018-11-01T18:12:30.639Z,80.23
2018-11-01T18:15:04.144Z,80.23
2018-11-01T18:17:38.326Z,80.20
2018-11-01T18:20:13.201Z,80.28
2018-11-01T18:22:46.143Z,80.42
2018-11-01T18:25:19.845Z,80.38
2018-11-01T18:27:53.217Z,80.33
2018-11-01T18:30:31.149Z,80.36
2018-11-01T18:33:20.429Z,80.48
2018-11-01T18:35:52.269Z,80.42
2018-11-01T18:38:25.453Z,80.40
2018-11-01T18:41:00.418Z,80.42
2018-11-01T18:43:35.446Z,80.30
2018-11-01T18:46:09.242Z,80.26
2018-11-01T18:48:55.831Z,80.44
2018-11-01T18:51:30.013Z,80.53
2018-11-01T18:54:12.912Z,80.49
2018-11-01T18:56:51.054Z,80.60
2018-11-01T18:59:22.164Z,80.45
2018-11-01T19:02:03.406Z,80.33
2018-11-01T19:04:39.613Z,80.32
2018-11-01T19:07:12.338Z,80.16
2018-11-01T19:09:46.584Z,80.10
2018-11-01T19:12:21.039Z,80.26
2018-11-01T19:14:55.513Z,80.30
2018-11-01T19:17:27.843Z,80.23
2018-11-01T19:20:01.372Z,80.07
2018-11-01T19:22:33.756Z,80.06
2018-11-01T19:25:07.262Z,80.00
2018-11-01T19:27:39.325Z,79.93
2018-11-01T19:30:23.513Z,79.98
2018-11-01T19:33:05.115Z,79.92
2018-11-01T19:35:42.070Z,79.88
2018-11-01T19:38:19.637Z,79.74
2018-11-01T19:41:03.718Z,79.65
2018-11-01T19:43:51.936Z,79.45
2018-11-01T19:46:27.666Z,79.09
2018-11-01T19:49:00.990Z,78.98
2018-11-01T19:51:42.501Z,78.94
2018-11-01T19:54:16.467Z,78.88
2018-11-01T19:56:52.128Z,78.65
2018-11-01T19:59:28.097Z,78.66
2018-11-01T20:02:01.543Z,78.56
2018-11-01T20:04:36.710Z,78.30
2018-11-01T20:07:09.642Z,78.33
2018-11-01T20:09:44.138Z,78.29
2018-11-01T20:12:17.411Z,78.26
2018-11-01T20:14:57.338Z,78.19
2018-11-01T20:17:32.835Z,78.07
2018-11-01T20:20:16.748Z,78.08
2018-11-01T20:23:05.688Z,78.18
2018-11-01T20:25:55.499Z,78.08
2018-11-01T20:28:29.115Z,78.08
2018-11-01T20:31:01.596Z,77.97
2018-11-01T20:33:35.937Z,77.97
2018-11-01T20:36:30.416Z,78.02
2018-11-01T20:39:26.302Z,78.03
2018-11-01T20:41:58.434Z,78.07
2018-11-01T20:44:32.095Z,77.94
2018-11-01T20:47:10.423Z,78.07
2018-11-01T20:49:48.095Z,78.06
2018-11-01T20:52:23.583Z,78.11
2018-11-01T20:55:07.048Z,78.15
2018-11-01T20:57:44.781Z,78.01
2018-11-01T21:00:21.616Z,78.00
2018-11-01T21:02:58.342Z,78.21
2018-11-01T21:05:32.149Z,78.19
2018-11-01T21:08:06.921Z,78.18
2018-11-01T21:10:42.930Z,78.16
2018-11-01T21:13:16.708Z,78.18
2018-11-01T21:16:09.061Z,78.27
2018-11-01T21:18:40.682Z,78.23
2018-11-01T21:21:17.945Z,78.17
2018-11-01T21:23:48.047Z,78.25
2018-11-01T21:26:26.611Z,78.21
2018-11-01T21:29:02.816Z,78.19
2018-11-01T21:31:39.108Z,78.29
2018-11-01T21:34:21.253Z,78.31
2018-11-01T21:36:56.744Z,78.11
2018-11-01T21:39:33.738Z,78.08
2018-11-01T21:42:09.572Z,78.09
2018-11-01T21:44:42.262Z,77.98
2018-11-01T21:47:16.522Z,78.03
2018-11-01T21:49:50.427Z,78.18
2018-11-01T21:52:24.712Z,78.10
2018-11-01T21:54:58.943Z,78.06
2018-11-01T21:57:39.420Z,78.00
2018-11-01T22:00:14.160Z,78.11
2018-11-01T22:02:47.649Z,78.04
2018-11-01T22:05:20.778Z,77.91
2018-11-01T22:07:54.227Z,77.83
2018-11-01T22:10:27.854Z,77.82
2018-11-01T22:13:01.649Z,77.70
2018-11-01T22:15:48.417Z,77.73
2018-11-01T22:18:22.292Z,77.71
2018-11-01T22:20:59.212Z,77.61
2018-11-01T22:23:36.952Z,77.59
2018-11-01T22:26:29.766Z,77.47
2018-11-01T22:29:11.057Z,77.42
2018-11-01T22:31:51.725Z,77.40
2018-11-01T22:34:32.425Z,77.43
2018-11-01T22:37:15.657Z,77.53
2018-11-01T22:39:59.140Z,77.44
2018-11-01T22:42:35.443Z,77.50
2018-11-01T22:45:11.064Z,77.36
2018-11-01T22:47:47.099Z,77.37
2018-11-01T22:50:20.788Z,77.13
2018-11-01T22:52:52.283Z,77.25
2018-11-01T22:55:25.301Z,77.28
2018-11-01T22:57:59.616Z,77.17
2018-11-01T23:00:30.705Z,77.08
2018-11-01T23:03:01.755Z,76.88
2018-11-01T23:05:37.249Z,76.99
2018-11-01T23:08:12.128Z,76.88
2018-11-01T23:10:45.060Z,76.78
2018-11-01T23:13:17.526Z,76.77
2018-11-01T23:15:50.431Z,76.80
2018-11-01T23:18:22.977Z,76.81
2018-11-01T23:20:56.627Z,76.81
2018-11-01T23:23:27.892Z,76.93
2018-11-01T23:26:01.247Z,76.98
2018-11-01T23:28:32.409Z,77.16
2018-11-01T23:31:03.468Z,77.37
2018-11-01T23:33:34.599Z,77.44
2018-11-01T23:36:05.772Z,77.22
2018-11-01T23:38:54.214Z,77.11
2018-11-01T23:41:42.433Z,77.09
2018-11-01T23:44:30.939Z,77.05
2018-11-01T23:47:19.482Z,77.06
2018-11-01T23:50:07.600Z,77.11
2018-11-01T23:52:40.295Z,77.20
2018-11-01T23:55:14.062Z,77.25
2018-11-01T23:57:45.151Z,77.19
